sensor_id;sensor_type;location;lat;lon;timestamp;temperature;humidity
9107;DHT22;4589;48.690;8.952;2023-10-19T00:00:14;10.60;99.90
9107;DHT22;4589;48.690;8.952;2023-10-19T00:02:49;10.70;99.90
9107;DHT22;4589;48.690;8.952;2023-10-19T00:05:18;10.70;99.90
9107;DHT22;4589;48.690;8.952;2023-10-19T00:07:43;10.80;99.90
9107;DHT22;4589;48.690;8.952;2023-10-19T00:10:10;10.80;99.90
9107;DHT22;4589;48.690;8.952;2023-10-19T00:12:40;10.80;99.90
9107;DHT22;4589;48.690;8.952;2023-10-19T00:15:06;10.80;99.90
9107;DHT22;4589;48.690;8.952;2023-10-19T00:17:31;10.90;99.90
9107;DHT22;4589;48.690;8.952;2023-10-19T00:19:58;10.90;99.90
9107;DHT22;4589;48.690;8.952;2023-10-19T00:25:01;10.80;99.90
9107;DHT22;4589;48.690;8.952;2023-10-19T00:27:29;10.80;99.90
9107;DHT22;4589;48.690;8.952;2023-10-19T00:29:54;10.80;99.90
9107;DHT22;4589;48.690;8.952;2023-10-19T00:32:31;10.90;99.90
9107;DHT22;4589;48.690;8.952;2023-10-19T00:34:56;10.90;99.90
9107;DHT22;4589;48.690;8.952;2023-10-19T00:37:22;10.90;99.90
9107;DHT22;4589;48.690;8.952;2023-10-19T00:39:57;10.90;99.90
9107;DHT22;4589;48.690;8.952;2023-10-19T00:42:39;10.90;99.90
9107;DHT22;4589;48.690;8.952;2023-10-19T00:45:11;10.90;99.90
9107;DHT22;4589;48.690;8.952;2023-10-19T00:47:38;10.90;99.90
9107;DHT22;4589;48.690;8.952;2023-10-19T00:50:08;10.90;99.90
9107;DHT22;4589;48.690;8.952;2023-10-19T00:52:42;10.90;99.90
9107;DHT22;4589;48.690;8.952;2023-10-19T00:55:18;11.00;99.90
9107;DHT22;4589;48.690;8.952;2023-10-19T00:57:51;11.00;99.90
9107;DHT22;4589;48.690;8.952;2023-10-19T01:00:17;11.00;99.90
9107;DHT22;4589;48.690;8.952;2023-10-19T01:02:57;11.00;99.90
9107;DHT22;4589;48.690;8.952;2023-10-19T01:07:58;11.10;99.90
9107;DHT22;4589;48.690;8.952;2023-10-19T01:12:53;11.10;99.90
9107;DHT22;4589;48.690;8.952;2023-10-19T01:15:21;11.20;99.90
9107;DHT22;4589;48.690;8.952;2023-10-19T01:17:59;11.20;99.90
9107;DHT22;4589;48.690;8.952;2023-10-19T01:20:29;11.10;99.90
9107;DHT22;4589;48.690;8.952;2023-10-19T01:23:05;11.20;99.90
9107;DHT22;4589;48.690;8.952;2023-10-19T01:25:48;11.20;99.90
9107;DHT22;4589;48.690;8.952;2023-10-19T01:28:21;11.20;99.90
9107;DHT22;4589;48.690;8.952;2023-10-19T01:30:51;11.20;99.90
9107;DHT22;4589;48.690;8.952;2023-10-19T01:33:17;11.20;99.90
9107;DHT22;4589;48.690;8.952;2023-10-19T01:35:44;11.20;99.90
9107;DHT22;4589;48.690;8.952;2023-10-19T01:38:29;11.20;99.90
9107;DHT22;4589;48.690;8.952;2023-10-19T01:40:58;11.20;99.90
9107;DHT22;4589;48.690;8.952;2023-10-19T01:43:25;11.20;99.90
9107;DHT22;4589;48.690;8.952;2023-10-19T01:45:54;11.20;99.90
9107;DHT22;4589;48.690;8.952;2023-10-19T01:50:53;11.20;99.90
9107;DHT22;4589;48.690;8.952;2023-10-19T01:53:18;11.30;99.90
9107;DHT22;4589;48.690;8.952;2023-10-19T01:58:23;11.20;99.90
9107;DHT22;4589;48.690;8.952;2023-10-19T02:00:51;11.10;99.90
9107;DHT22;4589;48.690;8.952;2023-10-19T02:03:21;11.10;99.90
9107;DHT22;4589;48.690;8.952;2023-10-19T02:05:57;11.10;99.90
9107;DHT22;4589;48.690;8.952;2023-10-19T02:08:27;11.10;99.90
9107;DHT22;4589;48.690;8.952;2023-10-19T02:13:22;11.00;99.90
9107;DHT22;4589;48.690;8.952;2023-10-19T02:15:49;11.00;99.90
9107;DHT22;4589;48.690;8.952;2023-10-19T02:18:16;10.90;99.90
9107;DHT22;4589;48.690;8.952;2023-10-19T02:20:42;10.80;99.90
9107;DHT22;4589;48.690;8.952;2023-10-19T02:23:13;10.80;99.90
9107;DHT22;4589;48.690;8.952;2023-10-19T02:25:40;10.80;99.90
9107;DHT22;4589;48.690;8.952;2023-10-19T02:30:35;10.70;99.90
9107;DHT22;4589;48.690;8.952;2023-10-19T02:33:01;10.60;99.90
9107;DHT22;4589;48.690;8.952;2023-10-19T02:37:55;10.40;99.90
9107;DHT22;4589;48.690;8.952;2023-10-19T02:40:21;10.40;99.90
9107;DHT22;4589;48.690;8.952;2023-10-19T02:42:49;10.40;99.90
9107;DHT22;4589;48.690;8.952;2023-10-19T02:47:46;10.30;99.90
9107;DHT22;4589;48.690;8.952;2023-10-19T02:50:12;10.30;99.90
9107;DHT22;4589;48.690;8.952;2023-10-19T02:52:48;10.30;99.90
9107;DHT22;4589;48.690;8.952;2023-10-19T02:57:43;10.20;99.90
9107;DHT22;4589;48.690;8.952;2023-10-19T03:00:12;10.10;99.90
9107;DHT22;4589;48.690;8.952;2023-10-19T03:02:40;10.10;99.90
9107;DHT22;4589;48.690;8.952;2023-10-19T03:05:06;10.00;99.90
9107;DHT22;4589;48.690;8.952;2023-10-19T03:07:39;9.90;99.90
9107;DHT22;4589;48.690;8.952;2023-10-19T03:10:06;9.90;99.90
9107;DHT22;4589;48.690;8.952;2023-10-19T03:14:59;9.80;99.90
9107;DHT22;4589;48.690;8.952;2023-10-19T03:17:26;9.80;99.90
9107;DHT22;4589;48.690;8.952;2023-10-19T03:22:19;9.70;99.90
9107;DHT22;4589;48.690;8.952;2023-10-19T03:24:45;9.70;99.90
9107;DHT22;4589;48.690;8.952;2023-10-19T03:27:15;9.70;99.90
9107;DHT22;4589;48.690;8.952;2023-10-19T03:29:43;9.90;99.90
9107;DHT22;4589;48.690;8.952;2023-10-19T03:32:14;10.00;99.90
9107;DHT22;4589;48.690;8.952;2023-10-19T03:34:41;10.10;99.90
9107;DHT22;4589;48.690;8.952;2023-10-19T03:37:12;10.10;99.90
9107;DHT22;4589;48.690;8.952;2023-10-19T03:39:39;10.20;99.90
9107;DHT22;4589;48.690;8.952;2023-10-19T03:42:05;10.10;99.90
9107;DHT22;4589;48.690;8.952;2023-10-19T03:44:32;10.00;99.90
9107;DHT22;4589;48.690;8.952;2023-10-19T03:47:22;10.10;99.90
9107;DHT22;4589;48.690;8.952;2023-10-19T03:49:51;10.20;99.90
9107;DHT22;4589;48.690;8.952;2023-10-19T03:52:17;10.20;99.90
9107;DHT22;4589;48.690;8.952;2023-10-19T03:54:43;10.20;99.90
9107;DHT22;4589;48.690;8.952;2023-10-19T03:57:11;10.20;99.90
9107;DHT22;4589;48.690;8.952;2023-10-19T03:59:48;10.10;99.90
9107;DHT22;4589;48.690;8.952;2023-10-19T04:02:15;10.30;99.90
9107;DHT22;4589;48.690;8.952;2023-10-19T04:04:42;10.30;99.90
9107;DHT22;4589;48.690;8.952;2023-10-19T04:07:12;10.20;99.90
9107;DHT22;4589;48.690;8.952;2023-10-19T04:09:56;10.20;99.90
9107;DHT22;4589;48.690;8.952;2023-10-19T04:12:24;10.10;99.90
9107;DHT22;4589;48.690;8.952;2023-10-19T04:14:50;10.10;99.90
9107;DHT22;4589;48.690;8.952;2023-10-19T04:17:16;10.00;99.90
9107;DHT22;4589;48.690;8.952;2023-10-19T04:19:49;10.10;99.90
9107;DHT22;4589;48.690;8.952;2023-10-19T04:22:17;10.10;99.90
9107;DHT22;4589;48.690;8.952;2023-10-19T04:32:09;10.00;99.90
9107;DHT22;4589;48.690;8.952;2023-10-19T04:39:32;10.20;99.90
9107;DHT22;4589;48.690;8.952;2023-10-19T04:41:59;10.40;99.90
9107;DHT22;4589;48.690;8.952;2023-10-19T04:44:25;10.50;99.90
9107;DHT22;4589;48.690;8.952;2023-10-19T04:46:51;10.60;99.90
9107;DHT22;4589;48.690;8.952;2023-10-19T04:51:42;10.70;99.90
9107;DHT22;4589;48.690;8.952;2023-10-19T04:59:04;10.90;99.90
9107;DHT22;4589;48.690;8.952;2023-10-19T05:01:30;11.00;99.90
9107;DHT22;4589;48.690;8.952;2023-10-19T05:03:59;10.90;99.90
9107;DHT22;4589;48.690;8.952;2023-10-19T05:06:24;10.90;99.90
9107;DHT22;4589;48.690;8.952;2023-10-19T05:08:50;11.00;99.90
9107;DHT22;4589;48.690;8.952;2023-10-19T05:23:28;10.90;99.90
9107;DHT22;4589;48.690;8.952;2023-10-19T05:26:00;10.90;99.90
9107;DHT22;4589;48.690;8.952;2023-10-19T05:28:26;11.10;99.90
9107;DHT22;4589;48.690;8.952;2023-10-19T05:33:18;11.20;99.90
9107;DHT22;4589;48.690;8.952;2023-10-19T05:35:47;11.20;99.90
9107;DHT22;4589;48.690;8.952;2023-10-19T05:38:13;11.30;99.90
9107;DHT22;4589;48.690;8.952;2023-10-19T05:43:06;11.50;99.90
9107;DHT22;4589;48.690;8.952;2023-10-19T05:45:33;11.50;99.90
9107;DHT22;4589;48.690;8.952;2023-10-19T05:48:00;11.50;99.90
9107;DHT22;4589;48.690;8.952;2023-10-19T05:50:25;11.50;99.90
9107;DHT22;4589;48.690;8.952;2023-10-19T05:52:53;11.60;99.90
9107;DHT22;4589;48.690;8.952;2023-10-19T05:55:19;11.50;99.90
9107;DHT22;4589;48.690;8.952;2023-10-19T05:57:47;11.50;99.90
9107;DHT22;4589;48.690;8.952;2023-10-19T06:00:13;11.50;99.90
9107;DHT22;4589;48.690;8.952;2023-10-19T06:02:43;11.50;99.90
9107;DHT22;4589;48.690;8.952;2023-10-19T06:05:13;11.50;99.90
9107;DHT22;4589;48.690;8.952;2023-10-19T06:07:46;11.50;99.90
9107;DHT22;4589;48.690;8.952;2023-10-19T06:10:13;11.50;99.90
9107;DHT22;4589;48.690;8.952;2023-10-19T06:12:42;11.50;99.90
9107;DHT22;4589;48.690;8.952;2023-10-19T06:15:09;11.50;99.90
9107;DHT22;4589;48.690;8.952;2023-10-19T06:17:37;11.40;99.90
9107;DHT22;4589;48.690;8.952;2023-10-19T06:20:04;11.50;99.90
9107;DHT22;4589;48.690;8.952;2023-10-19T06:22:30;11.50;99.90
9107;DHT22;4589;48.690;8.952;2023-10-19T06:24:55;11.40;99.90
9107;DHT22;4589;48.690;8.952;2023-10-19T06:27:21;11.40;99.90
9107;DHT22;4589;48.690;8.952;2023-10-19T06:32:15;11.40;99.90
9107;DHT22;4589;48.690;8.952;2023-10-19T06:34:40;11.50;99.90
9107;DHT22;4589;48.690;8.952;2023-10-19T06:39:35;11.40;99.90
9107;DHT22;4589;48.690;8.952;2023-10-19T06:42:06;11.60;99.90
9107;DHT22;4589;48.690;8.952;2023-10-19T06:44:35;11.60;99.90
9107;DHT22;4589;48.690;8.952;2023-10-19T06:47:01;11.60;99.90
9107;DHT22;4589;48.690;8.952;2023-10-19T06:51:53;11.60;99.90
9107;DHT22;4589;48.690;8.952;2023-10-19T06:54:19;11.60;99.90
9107;DHT22;4589;48.690;8.952;2023-10-19T07:01:36;11.70;99.90
9107;DHT22;4589;48.690;8.952;2023-10-19T07:06:28;11.70;99.90
9107;DHT22;4589;48.690;8.952;2023-10-19T07:08:54;11.70;99.90
9107;DHT22;4589;48.690;8.952;2023-10-19T07:16:12;11.80;99.90
9107;DHT22;4589;48.690;8.952;2023-10-19T07:18:38;11.80;99.90
9107;DHT22;4589;48.690;8.952;2023-10-19T07:21:04;11.90;99.90
9107;DHT22;4589;48.690;8.952;2023-10-19T07:23:31;11.90;99.90
9107;DHT22;4589;48.690;8.952;2023-10-19T07:25:57;11.90;99.90
9107;DHT22;4589;48.690;8.952;2023-10-19T07:28:26;12.00;99.90
9107;DHT22;4589;48.690;8.952;2023-10-19T07:30:52;12.10;99.90
9107;DHT22;4589;48.690;8.952;2023-10-19T07:33:18;12.20;99.90
9107;DHT22;4589;48.690;8.952;2023-10-19T07:35:46;12.30;99.90
9107;DHT22;4589;48.690;8.952;2023-10-19T07:38:15;12.40;99.90
9107;DHT22;4589;48.690;8.952;2023-10-19T07:40:42;12.50;99.90
9107;DHT22;4589;48.690;8.952;2023-10-19T07:43:09;12.60;99.90
9107;DHT22;4589;48.690;8.952;2023-10-19T07:45:35;12.70;99.90
9107;DHT22;4589;48.690;8.952;2023-10-19T07:48:02;12.80;99.90
9107;DHT22;4589;48.690;8.952;2023-10-19T07:50:35;12.90;99.90
9107;DHT22;4589;48.690;8.952;2023-10-19T07:53:01;13.00;99.90
9107;DHT22;4589;48.690;8.952;2023-10-19T07:57:53;13.20;99.90
9107;DHT22;4589;48.690;8.952;2023-10-19T08:00:20;13.20;99.90
9107;DHT22;4589;48.690;8.952;2023-10-19T08:02:46;13.30;99.90
9107;DHT22;4589;48.690;8.952;2023-10-19T08:05:15;13.50;99.90
9107;DHT22;4589;48.690;8.952;2023-10-19T08:07:41;13.90;99.90
9107;DHT22;4589;48.690;8.952;2023-10-19T08:10:12;14.30;99.90
9107;DHT22;4589;48.690;8.952;2023-10-19T08:12:39;14.50;99.90
9107;DHT22;4589;48.690;8.952;2023-10-19T08:15:08;14.70;99.90
9107;DHT22;4589;48.690;8.952;2023-10-19T08:17:39;15.10;99.90
9107;DHT22;4589;48.690;8.952;2023-10-19T08:20:10;15.40;99.90
9107;DHT22;4589;48.690;8.952;2023-10-19T08:22:42;16.10;99.90
9107;DHT22;4589;48.690;8.952;2023-10-19T08:27:40;16.10;99.90
9107;DHT22;4589;48.690;8.952;2023-10-19T08:30:10;16.20;99.90
9107;DHT22;4589;48.690;8.952;2023-10-19T08:32:36;16.40;99.90
9107;DHT22;4589;48.690;8.952;2023-10-19T08:35:02;16.50;99.90
9107;DHT22;4589;48.690;8.952;2023-10-19T08:37:29;16.50;99.90
9107;DHT22;4589;48.690;8.952;2023-10-19T08:42:21;16.40;99.90
9107;DHT22;4589;48.690;8.952;2023-10-19T08:52:07;16.70;99.90
9107;DHT22;4589;48.690;8.952;2023-10-19T08:54:33;16.50;99.90
9107;DHT22;4589;48.690;8.952;2023-10-19T08:57:00;16.30;99.90
9107;DHT22;4589;48.690;8.952;2023-10-19T08:59:26;16.20;99.90
9107;DHT22;4589;48.690;8.952;2023-10-19T09:02:00;16.10;99.90
9107;DHT22;4589;48.690;8.952;2023-10-19T09:04:26;16.10;99.90
9107;DHT22;4589;48.690;8.952;2023-10-19T09:06:53;16.10;99.90
9107;DHT22;4589;48.690;8.952;2023-10-19T09:09:20;16.10;99.90
9107;DHT22;4589;48.690;8.952;2023-10-19T09:11:47;16.40;99.90
9107;DHT22;4589;48.690;8.952;2023-10-19T09:14:14;16.60;99.90
9107;DHT22;4589;48.690;8.952;2023-10-19T09:16:56;16.90;99.90
9107;DHT22;4589;48.690;8.952;2023-10-19T09:19:42;16.80;99.90
9107;DHT22;4589;48.690;8.952;2023-10-19T09:22:09;17.20;99.90
9107;DHT22;4589;48.690;8.952;2023-10-19T09:24:49;17.40;99.90
9107;DHT22;4589;48.690;8.952;2023-10-19T09:27:21;17.70;99.90
9107;DHT22;4589;48.690;8.952;2023-10-19T09:29:48;17.80;99.90
9107;DHT22;4589;48.690;8.952;2023-10-19T09:32:14;17.70;99.90
9107;DHT22;4589;48.690;8.952;2023-10-19T09:34:40;17.70;99.90
9107;DHT22;4589;48.690;8.952;2023-10-19T09:37:10;17.60;99.90
9107;DHT22;4589;48.690;8.952;2023-10-19T09:39:35;17.40;99.90
9107;DHT22;4589;48.690;8.952;2023-10-19T09:42:09;17.40;99.90
9107;DHT22;4589;48.690;8.952;2023-10-19T09:44:48;17.30;99.90
9107;DHT22;4589;48.690;8.952;2023-10-19T09:47:28;17.20;99.90
9107;DHT22;4589;48.690;8.952;2023-10-19T09:49:57;17.10;99.90
9107;DHT22;4589;48.690;8.952;2023-10-19T09:52:23;16.90;99.90
9107;DHT22;4589;48.690;8.952;2023-10-19T09:58:06;16.70;99.90
9107;DHT22;4589;48.690;8.952;2023-10-19T10:00:35;16.70;99.90
9107;DHT22;4589;48.690;8.952;2023-10-19T10:03:00;16.70;99.90
9107;DHT22;4589;48.690;8.952;2023-10-19T10:10:47;16.70;99.90
9107;DHT22;4589;48.690;8.952;2023-10-19T10:15:59;16.80;99.90
9107;DHT22;4589;48.690;8.952;2023-10-19T10:18:33;16.80;99.90
9107;DHT22;4589;48.690;8.952;2023-10-19T10:21:13;16.70;99.90
9107;DHT22;4589;48.690;8.952;2023-10-19T10:23:45;16.70;99.90
9107;DHT22;4589;48.690;8.952;2023-10-19T10:26:13;16.60;99.90
9107;DHT22;4589;48.690;8.952;2023-10-19T10:28:40;16.50;99.90
9107;DHT22;4589;48.690;8.952;2023-10-19T10:31:13;16.50;99.90
9107;DHT22;4589;48.690;8.952;2023-10-19T10:36:10;16.20;99.90
9107;DHT22;4589;48.690;8.952;2023-10-19T10:38:37;16.20;99.90
9107;DHT22;4589;48.690;8.952;2023-10-19T10:41:03;16.10;99.90
9107;DHT22;4589;48.690;8.952;2023-10-19T10:43:29;16.00;99.90
9107;DHT22;4589;48.690;8.952;2023-10-19T10:46:07;16.00;99.90
9107;DHT22;4589;48.690;8.952;2023-10-19T10:48:33;15.90;99.90
9107;DHT22;4589;48.690;8.952;2023-10-19T10:51:01;15.90;99.90
9107;DHT22;4589;48.690;8.952;2023-10-19T10:55:53;15.90;99.90
9107;DHT22;4589;48.690;8.952;2023-10-19T11:00:46;15.70;99.90
9107;DHT22;4589;48.690;8.952;2023-10-19T11:03:12;15.70;99.90
9107;DHT22;4589;48.690;8.952;2023-10-19T11:05:39;15.60;99.90
9107;DHT22;4589;48.690;8.952;2023-10-19T11:08:12;15.60;99.90
9107;DHT22;4589;48.690;8.952;2023-10-19T11:10:39;15.50;99.90
9107;DHT22;4589;48.690;8.952;2023-10-19T11:13:09;13.50;99.90
9107;DHT22;4589;48.690;8.952;2023-10-19T11:15:36;15.30;99.90
9107;DHT22;4589;48.690;8.952;2023-10-19T11:18:03;15.30;99.90
9107;DHT22;4589;48.690;8.952;2023-10-19T11:20:29;15.20;99.90
9107;DHT22;4589;48.690;8.952;2023-10-19T11:22:55;15.10;99.90
9107;DHT22;4589;48.690;8.952;2023-10-19T11:25:23;15.10;99.90
9107;DHT22;4589;48.690;8.952;2023-10-19T11:27:49;15.20;99.90
9107;DHT22;4589;48.690;8.952;2023-10-19T11:30:26;15.20;99.90
9107;DHT22;4589;48.690;8.952;2023-10-19T11:32:53;15.20;99.90
9107;DHT22;4589;48.690;8.952;2023-10-19T11:35:22;15.10;99.90
9107;DHT22;4589;48.690;8.952;2023-10-19T11:37:51;15.20;99.90
9107;DHT22;4589;48.690;8.952;2023-10-19T11:40:19;15.10;99.90
9107;DHT22;4589;48.690;8.952;2023-10-19T11:45:12;15.20;99.90
9107;DHT22;4589;48.690;8.952;2023-10-19T11:47:38;15.20;99.90
9107;DHT22;4589;48.690;8.952;2023-10-19T11:50:04;15.20;99.90
9107;DHT22;4589;48.690;8.952;2023-10-19T11:52:30;15.20;99.90
9107;DHT22;4589;48.690;8.952;2023-10-19T11:54:56;15.10;99.90
9107;DHT22;4589;48.690;8.952;2023-10-19T11:57:23;15.10;99.90
9107;DHT22;4589;48.690;8.952;2023-10-19T11:59:49;15.00;99.90
9107;DHT22;4589;48.690;8.952;2023-10-19T12:02:18;15.00;99.90
9107;DHT22;4589;48.690;8.952;2023-10-19T12:04:44;15.00;99.90
9107;DHT22;4589;48.690;8.952;2023-10-19T12:07:11;15.00;99.90
9107;DHT22;4589;48.690;8.952;2023-10-19T12:09:37;15.00;99.90
9107;DHT22;4589;48.690;8.952;2023-10-19T12:12:02;15.00;99.90
9107;DHT22;4589;48.690;8.952;2023-10-19T12:14:32;14.90;99.90
9107;DHT22;4589;48.690;8.952;2023-10-19T12:17:00;15.00;99.90
9107;DHT22;4589;48.690;8.952;2023-10-19T12:19:29;15.10;99.90
9107;DHT22;4589;48.690;8.952;2023-10-19T12:21:55;15.10;99.90
9107;DHT22;4589;48.690;8.952;2023-10-19T12:24:21;15.10;99.90
9107;DHT22;4589;48.690;8.952;2023-10-19T12:31:41;15.00;99.90
9107;DHT22;4589;48.690;8.952;2023-10-19T12:34:07;15.10;99.90
9107;DHT22;4589;48.690;8.952;2023-10-19T12:36:34;15.20;99.90
9107;DHT22;4589;48.690;8.952;2023-10-19T12:39:01;15.20;99.90
9107;DHT22;4589;48.690;8.952;2023-10-19T12:41:27;15.10;99.90
9107;DHT22;4589;48.690;8.952;2023-10-19T12:43:53;15.10;99.90
9107;DHT22;4589;48.690;8.952;2023-10-19T12:49:04;15.00;99.90
9107;DHT22;4589;48.690;8.952;2023-10-19T12:51:34;15.00;99.90
9107;DHT22;4589;48.690;8.952;2023-10-19T12:54:00;15.00;99.90
9107;DHT22;4589;48.690;8.952;2023-10-19T12:56:28;14.90;99.90
9107;DHT22;4589;48.690;8.952;2023-10-19T12:58:54;15.00;99.90
9107;DHT22;4589;48.690;8.952;2023-10-19T13:01:20;15.00;99.90
9107;DHT22;4589;48.690;8.952;2023-10-19T13:03:47;15.00;99.90
9107;DHT22;4589;48.690;8.952;2023-10-19T13:06:13;15.00;99.90
9107;DHT22;4589;48.690;8.952;2023-10-19T13:08:39;15.10;99.90
9107;DHT22;4589;48.690;8.952;2023-10-19T13:11:08;15.10;99.90
9107;DHT22;4589;48.690;8.952;2023-10-19T13:16:02;15.20;99.90
9107;DHT22;4589;48.690;8.952;2023-10-19T13:18:31;15.20;99.90
9107;DHT22;4589;48.690;8.952;2023-10-19T13:20:59;15.20;99.90
9107;DHT22;4589;48.690;8.952;2023-10-19T13:23:31;15.10;99.90
9107;DHT22;4589;48.690;8.952;2023-10-19T13:28:42;15.10;99.90
9107;DHT22;4589;48.690;8.952;2023-10-19T13:31:08;15.10;99.90
9107;DHT22;4589;48.690;8.952;2023-10-19T13:33:39;15.20;99.90
9107;DHT22;4589;48.690;8.952;2023-10-19T13:48:18;15.00;99.90
9107;DHT22;4589;48.690;8.952;2023-10-19T13:50:48;15.10;99.90
9107;DHT22;4589;48.690;8.952;2023-10-19T13:53:17;15.10;99.90
9107;DHT22;4589;48.690;8.952;2023-10-19T13:58:09;15.10;99.90
9107;DHT22;4589;48.690;8.952;2023-10-19T14:00:35;15.10;99.90
9107;DHT22;4589;48.690;8.952;2023-10-19T14:05:43;15.10;99.90
9107;DHT22;4589;48.690;8.952;2023-10-19T14:08:13;15.10;99.90
9107;DHT22;4589;48.690;8.952;2023-10-19T14:10:39;15.00;99.90
9107;DHT22;4589;48.690;8.952;2023-10-19T14:13:07;15.00;99.90
9107;DHT22;4589;48.690;8.952;2023-10-19T14:15:33;14.90;99.90
9107;DHT22;4589;48.690;8.952;2023-10-19T14:18:00;15.00;99.90
9107;DHT22;4589;48.690;8.952;2023-10-19T14:20:28;15.00;99.90
9107;DHT22;4589;48.690;8.952;2023-10-19T14:22:53;15.00;99.90
9107;DHT22;4589;48.690;8.952;2023-10-19T14:25:20;14.90;99.90
9107;DHT22;4589;48.690;8.952;2023-10-19T14:27:48;14.80;99.90
9107;DHT22;4589;48.690;8.952;2023-10-19T14:30:15;14.90;99.90
9107;DHT22;4589;48.690;8.952;2023-10-19T14:32:44;14.90;99.90
9107;DHT22;4589;48.690;8.952;2023-10-19T14:35:11;14.80;99.90
9107;DHT22;4589;48.690;8.952;2023-10-19T14:37:43;14.90;99.90
9107;DHT22;4589;48.690;8.952;2023-10-19T14:40:14;14.90;99.90
9107;DHT22;4589;48.690;8.952;2023-10-19T14:42:41;14.90;99.90
9107;DHT22;4589;48.690;8.952;2023-10-19T14:45:27;14.80;99.90
9107;DHT22;4589;48.690;8.952;2023-10-19T14:47:56;14.80;99.90
9107;DHT22;4589;48.690;8.952;2023-10-19T14:50:30;14.70;99.90
9107;DHT22;4589;48.690;8.952;2023-10-19T14:57:50;14.80;99.90
9107;DHT22;4589;48.690;8.952;2023-10-19T15:02:48;14.80;99.90
9107;DHT22;4589;48.690;8.952;2023-10-19T15:05:15;14.80;99.90
9107;DHT22;4589;48.690;8.952;2023-10-19T15:07:44;14.80;99.90
9107;DHT22;4589;48.690;8.952;2023-10-19T15:10:11;14.80;99.90
9107;DHT22;4589;48.690;8.952;2023-10-19T15:12:38;14.70;99.90
9107;DHT22;4589;48.690;8.952;2023-10-19T15:15:05;14.80;99.90
9107;DHT22;4589;48.690;8.952;2023-10-19T15:17:31;14.70;99.90
9107;DHT22;4589;48.690;8.952;2023-10-19T15:22:24;14.70;99.90
9107;DHT22;4589;48.690;8.952;2023-10-19T15:24:52;14.70;99.90
9107;DHT22;4589;48.690;8.952;2023-10-19T15:27:18;15.10;99.90
9107;DHT22;4589;48.690;8.952;2023-10-19T15:29:45;14.60;99.90
9107;DHT22;4589;48.690;8.952;2023-10-19T15:39:28;14.60;99.90
9107;DHT22;4589;48.690;8.952;2023-10-19T15:49:14;14.50;99.90
9107;DHT22;4589;48.690;8.952;2023-10-19T15:51:40;14.40;99.90
9107;DHT22;4589;48.690;8.952;2023-10-19T15:54:06;14.50;99.90
9107;DHT22;4589;48.690;8.952;2023-10-19T15:56:32;14.40;99.90
9107;DHT22;4589;48.690;8.952;2023-10-19T15:58:58;14.30;99.90
9107;DHT22;4589;48.690;8.952;2023-10-19T16:01:24;14.40;99.90
9107;DHT22;4589;48.690;8.952;2023-10-19T16:03:50;14.30;99.90
9107;DHT22;4589;48.690;8.952;2023-10-19T16:06:16;14.30;99.90
9107;DHT22;4589;48.690;8.952;2023-10-19T16:08:42;14.30;99.90
9107;DHT22;4589;48.690;8.952;2023-10-19T16:13:34;14.20;99.90
9107;DHT22;4589;48.690;8.952;2023-10-19T16:16:03;14.20;99.90
9107;DHT22;4589;48.690;8.952;2023-10-19T16:20:55;14.20;99.90
9107;DHT22;4589;48.690;8.952;2023-10-19T16:23:21;14.20;99.90
9107;DHT22;4589;48.690;8.952;2023-10-19T16:35:31;14.10;99.90
9107;DHT22;4589;48.690;8.952;2023-10-19T16:37:56;14.00;99.90
9107;DHT22;4589;48.690;8.952;2023-10-19T16:40:22;14.00;99.90
9107;DHT22;4589;48.690;8.952;2023-10-19T16:42:47;14.00;99.90
9107;DHT22;4589;48.690;8.952;2023-10-19T16:45:13;14.00;99.90
9107;DHT22;4589;48.690;8.952;2023-10-19T16:47:39;14.00;99.90
9107;DHT22;4589;48.690;8.952;2023-10-19T16:50:07;14.00;99.90
9107;DHT22;4589;48.690;8.952;2023-10-19T16:52:37;14.00;99.90
9107;DHT22;4589;48.690;8.952;2023-10-19T16:55:04;13.90;99.90
9107;DHT22;4589;48.690;8.952;2023-10-19T16:57:31;13.90;99.90
9107;DHT22;4589;48.690;8.952;2023-10-19T17:02:22;13.90;99.90
9107;DHT22;4589;48.690;8.952;2023-10-19T17:04:50;13.90;99.90
9107;DHT22;4589;48.690;8.952;2023-10-19T17:09:44;13.90;99.90
9107;DHT22;4589;48.690;8.952;2023-10-19T17:14:37;13.80;99.90
9107;DHT22;4589;48.690;8.952;2023-10-19T17:17:04;13.90;99.90
9107;DHT22;4589;48.690;8.952;2023-10-19T17:19:30;13.90;99.90
9107;DHT22;4589;48.690;8.952;2023-10-19T17:21:56;13.80;99.90
9107;DHT22;4589;48.690;8.952;2023-10-19T17:31:41;13.70;99.90
9107;DHT22;4589;48.690;8.952;2023-10-19T17:34:08;13.60;99.90
9107;DHT22;4589;48.690;8.952;2023-10-19T17:36:33;13.70;99.90
9107;DHT22;4589;48.690;8.952;2023-10-19T17:41:26;13.80;99.90
9107;DHT22;4589;48.690;8.952;2023-10-19T17:43:52;13.70;99.90
9107;DHT22;4589;48.690;8.952;2023-10-19T17:46:18;13.70;99.90
9107;DHT22;4589;48.690;8.952;2023-10-19T17:48:44;13.70;99.90
9107;DHT22;4589;48.690;8.952;2023-10-19T17:51:14;13.60;99.90
9107;DHT22;4589;48.690;8.952;2023-10-19T17:53:43;13.60;99.90
9107;DHT22;4589;48.690;8.952;2023-10-19T17:56:09;13.60;99.90
9107;DHT22;4589;48.690;8.952;2023-10-19T17:58:35;13.60;99.90
9107;DHT22;4589;48.690;8.952;2023-10-19T18:01:04;13.60;99.90
9107;DHT22;4589;48.690;8.952;2023-10-19T18:03:33;13.60;99.90
9107;DHT22;4589;48.690;8.952;2023-10-19T18:06:01;13.60;99.90
9107;DHT22;4589;48.690;8.952;2023-10-19T18:08:27;13.50;99.90
9107;DHT22;4589;48.690;8.952;2023-10-19T18:10:53;13.50;99.90
9107;DHT22;4589;48.690;8.952;2023-10-19T18:13:19;13.50;99.90
9107;DHT22;4589;48.690;8.952;2023-10-19T18:20:37;13.40;99.90
9107;DHT22;4589;48.690;8.952;2023-10-19T18:23:04;13.40;99.90
9107;DHT22;4589;48.690;8.952;2023-10-19T18:25:30;13.40;99.90
9107;DHT22;4589;48.690;8.952;2023-10-19T18:27:56;13.40;99.90
9107;DHT22;4589;48.690;8.952;2023-10-19T18:30:22;13.40;99.90
9107;DHT22;4589;48.690;8.952;2023-10-19T18:32:48;13.40;99.90
9107;DHT22;4589;48.690;8.952;2023-10-19T18:35:14;13.30;99.90
9107;DHT22;4589;48.690;8.952;2023-10-19T18:37:40;13.30;99.90
9107;DHT22;4589;48.690;8.952;2023-10-19T18:40:06;13.30;99.90
9107;DHT22;4589;48.690;8.952;2023-10-19T18:42:32;13.30;99.90
9107;DHT22;4589;48.690;8.952;2023-10-19T18:49:55;13.40;99.90
9107;DHT22;4589;48.690;8.952;2023-10-19T18:52:23;13.40;99.90
9107;DHT22;4589;48.690;8.952;2023-10-19T18:54:48;13.40;99.90
9107;DHT22;4589;48.690;8.952;2023-10-19T18:57:14;13.40;99.90
9107;DHT22;4589;48.690;8.952;2023-10-19T18:59:40;13.40;99.90
9107;DHT22;4589;48.690;8.952;2023-10-19T19:02:05;13.50;99.90
9107;DHT22;4589;48.690;8.952;2023-10-19T19:04:32;13.40;99.90
9107;DHT22;4589;48.690;8.952;2023-10-19T19:07:00;13.40;99.90
9107;DHT22;4589;48.690;8.952;2023-10-19T19:09:26;13.40;99.90
9107;DHT22;4589;48.690;8.952;2023-10-19T19:11:51;13.50;99.90
9107;DHT22;4589;48.690;8.952;2023-10-19T19:14:17;13.50;99.90
9107;DHT22;4589;48.690;8.952;2023-10-19T19:16:43;13.40;99.90
9107;DHT22;4589;48.690;8.952;2023-10-19T19:19:09;13.40;99.90
9107;DHT22;4589;48.690;8.952;2023-10-19T19:21:36;13.30;99.90
9107;DHT22;4589;48.690;8.952;2023-10-19T19:24:06;13.30;99.90
9107;DHT22;4589;48.690;8.952;2023-10-19T19:26:32;13.30;99.90
9107;DHT22;4589;48.690;8.952;2023-10-19T19:28:59;13.30;99.90
9107;DHT22;4589;48.690;8.952;2023-10-19T19:31:25;13.30;99.90
9107;DHT22;4589;48.690;8.952;2023-10-19T19:33:51;13.30;99.90
9107;DHT22;4589;48.690;8.952;2023-10-19T19:36:17;13.40;99.90
9107;DHT22;4589;48.690;8.952;2023-10-19T19:38:44;13.30;99.90
9107;DHT22;4589;48.690;8.952;2023-10-19T19:43:36;13.30;99.90
9107;DHT22;4589;48.690;8.952;2023-10-19T19:46:03;13.30;99.90